< < Back
Terminal Aerodrome Forecast


Current Version              Previous Versions:   1  2  3  4  5  6  7  8  9  

Terminal Aerodrome Forecast

137
FTUS42 KFFC 202329
TAFAHN
TAF
KAHN 202329Z 2100/2124 05005KT 4SM BR OVC005
      TEMPO 2100/2104 2SM BR OVC003
     FM210400 05003KT 2SM BR OVC003
     FM211400 06005KT 4SM BR OVC007
     FM211900 09007KT 6SM BR OVC012=

Latest METAR

554
SAUS70 KWBC 210700
MTRAHN
METAR KAHN 210651Z AUTO 05005KT 2 1/2SM BR OVC003 07/06 A3020 RMK AO2
SLP231 T00720061


USA.gov is the U.S. government's official web portal to all federal, state and local government web resources and services.